Hermosa, South Dakota
Current Conditions -  °F | °C
As of 2:52 PM on Sunday 23 Nov 2014 (Local Time) from KRAP Reporting Station
Broken Clouds Broken Clouds  
Wind Chill: 25°   Ceiling: 6000
Heat Index: 38°   Visibility: 10mi
Dew Point: 21°   Wind: 31mph
Humidity: 51%   Direction: 320°NW
Pressure: 29.7"   Gusts: 49mph
Location:  43.84°N, 103.19°W
Report Text: KRAP 232152Z 32027G43KT 10SM SCT049 BKN060 03/M06 A2970 RMK AO2 PK WND 32045/2105 SLP073 T00331061 PNO $
Loading
Personal Weather Stations






























Interactive Weather Map New forecast layout! Learn more

10-Day Weather Forecast

Advertisements
Track Severe Weather on mobile